createdAt,value
2018-11-10T00:02:03.292Z,36.40
2018-11-10T00:04:31.791Z,37.77
2018-11-10T00:07:00.284Z,35.70
2018-11-10T00:09:28.793Z,35.07
2018-11-10T00:11:57.352Z,42.67
2018-11-10T00:14:28.691Z,40.50
2018-11-10T00:16:57.173Z,34.13
2018-11-10T00:19:25.722Z,35.20
2018-11-10T00:21:54.212Z,42.47
2018-11-10T00:24:22.726Z,39.90
2018-11-10T00:26:51.232Z,35.30
2018-11-10T00:29:19.784Z,43.57
2018-11-10T00:31:48.304Z,35.13
2018-11-10T00:34:16.807Z,41.97
2018-11-10T00:36:45.705Z,43.80
2018-11-10T00:39:14.227Z,47.90
2018-11-10T00:41:42.981Z,44.50
2018-11-10T00:44:11.508Z,42.53
2018-11-10T00:46:40.054Z,50.23
2018-11-10T00:49:08.715Z,40.83
2018-11-10T00:51:38.641Z,39.10
2018-11-10T00:54:07.192Z,42.00
2018-11-10T00:56:35.911Z,41.17
2018-11-10T00:59:04.520Z,35.37
2018-11-10T01:01:33.076Z,42.57
2018-11-10T01:04:01.697Z,42.73
2018-11-10T01:06:30.207Z,41.87
2018-11-10T01:08:58.683Z,42.10
2018-11-10T01:11:27.183Z,39.30
2018-11-10T01:13:55.688Z,42.80
2018-11-10T01:16:24.271Z,39.07
2018-11-10T01:18:52.777Z,36.87
2018-11-10T01:21:21.348Z,40.47
2018-11-10T01:23:49.875Z,39.30
2018-11-10T01:26:18.404Z,41.50
2018-11-10T01:28:46.896Z,43.80
2018-11-10T01:31:15.490Z,46.73
2018-11-10T01:33:44.000Z,49.17
2018-11-10T01:36:12.538Z,53.50
2018-11-10T01:38:41.052Z,42.10
2018-11-10T01:41:09.586Z,47.73
2018-11-10T01:43:38.112Z,47.70
2018-11-10T01:46:06.616Z,44.83
2018-11-10T01:48:35.105Z,45.03
2018-11-10T01:51:03.651Z,46.53
2018-11-10T01:53:32.140Z,41.00
2018-11-10T01:56:00.657Z,39.00
2018-11-10T01:58:29.191Z,44.40
2018-11-10T02:00:57.726Z,45.93
2018-11-10T02:03:26.227Z,46.07
2018-11-10T02:05:54.723Z,38.57
2018-11-10T02:08:23.275Z,35.93
2018-11-10T02:10:51.783Z,41.47
2018-11-10T02:13:20.331Z,51.47
2018-11-10T02:15:48.869Z,45.90
2018-11-10T02:18:17.445Z,39.00
2018-11-10T02:20:45.992Z,42.60
2018-11-10T02:23:14.673Z,45.13
2018-11-10T02:25:43.398Z,49.40
2018-11-10T02:28:12.015Z,40.37
2018-11-10T02:30:40.586Z,47.97
2018-11-10T02:33:15.793Z,48.50
2018-11-10T02:35:44.349Z,42.97
2018-11-10T02:38:12.868Z,41.70
2018-11-10T02:40:41.453Z,47.33
2018-11-10T02:43:10.005Z,42.87
2018-11-10T02:45:38.534Z,43.87
2018-11-10T02:48:07.133Z,47.50
2018-11-10T02:50:35.707Z,43.37
2018-11-10T02:53:04.409Z,39.67
2018-11-10T02:55:32.930Z,42.10
2018-11-10T02:58:01.473Z,40.07
2018-11-10T03:00:29.996Z,43.17
2018-11-10T03:02:58.548Z,50.67
2018-11-10T03:05:27.052Z,39.33
2018-11-10T03:07:55.632Z,40.57
2018-11-10T03:10:24.160Z,35.60
2018-11-10T03:12:52.721Z,48.40
2018-11-10T03:15:21.242Z,46.07
2018-11-10T03:17:49.760Z,38.00
2018-11-10T03:20:18.259Z,40.97
2018-11-10T03:22:46.788Z,40.83
2018-11-10T03:25:15.297Z,41.63
2018-11-10T03:27:43.835Z,46.00
2018-11-10T03:30:12.373Z,40.50
2018-11-10T03:32:40.936Z,39.57
2018-11-10T03:35:10.111Z,35.77
2018-11-10T03:37:39.032Z,44.43
2018-11-10T03:40:09.701Z,42.03
2018-11-10T03:42:38.733Z,40.93
2018-11-10T03:45:08.308Z,39.03
2018-11-10T03:47:36.910Z,29.97
2018-11-10T03:50:06.207Z,39.63
2018-11-10T03:52:34.721Z,42.33
2018-11-10T03:55:03.343Z,38.43
2018-11-10T03:57:31.857Z,37.37
2018-11-10T04:00:00.385Z,38.60
2018-11-10T04:02:28.933Z,38.80
2018-11-10T04:04:57.496Z,38.47
2018-11-10T04:07:26.009Z,31.63
2018-11-10T04:09:54.567Z,37.53
2018-11-10T04:12:23.144Z,35.80
2018-11-10T04:14:51.693Z,38.40
2018-11-10T04:17:20.236Z,44.63
2018-11-10T04:19:48.780Z,38.27
2018-11-10T04:22:21.809Z,41.67
2018-11-10T04:24:50.358Z,46.37
2018-11-10T04:27:18.867Z,36.13
2018-11-10T04:29:47.402Z,44.03
2018-11-10T04:32:15.926Z,38.73
2018-11-10T04:34:44.473Z,39.87
2018-11-10T04:37:13.015Z,35.33
2018-11-10T04:39:41.568Z,34.33
2018-11-10T04:42:10.098Z,40.27
2018-11-10T04:44:38.644Z,36.73
2018-11-10T04:47:07.193Z,34.37
2018-11-10T04:49:35.782Z,37.63
2018-11-10T04:52:04.702Z,29.00
2018-11-10T04:54:33.265Z,36.23
2018-11-10T04:57:01.801Z,31.67
2018-11-10T04:59:30.362Z,37.00
2018-11-10T05:01:58.951Z,39.13
2018-11-10T05:04:27.504Z,34.47
2018-11-10T05:06:56.067Z,35.20
2018-11-10T05:09:24.612Z,33.67
2018-11-10T05:11:53.125Z,37.90
2018-11-10T05:14:21.678Z,34.13
2018-11-10T05:16:50.211Z,38.70
2018-11-10T05:19:18.945Z,30.83
2018-11-10T05:21:47.944Z,31.03
2018-11-10T05:24:16.512Z,29.63
2018-11-10T05:26:45.046Z,26.97
2018-11-10T05:29:13.631Z,26.10
2018-11-10T05:31:42.190Z,22.87
2018-11-10T05:34:10.747Z,24.87
2018-11-10T05:36:39.252Z,26.37
2018-11-10T05:39:09.041Z,26.10
2018-11-10T05:41:37.560Z,34.53
2018-11-10T05:44:06.388Z,32.77
2018-11-10T05:46:34.912Z,30.93
2018-11-10T05:49:03.452Z,46.77
2018-11-10T05:51:31.973Z,21.67
2018-11-10T05:54:00.528Z,26.33
2018-11-10T05:56:29.088Z,26.97
2018-11-10T05:58:57.621Z,26.80
2018-11-10T06:01:26.181Z,22.93
2018-11-10T06:03:54.701Z,24.03
2018-11-10T06:06:23.256Z,23.37
2018-11-10T06:08:51.791Z,22.30
2018-11-10T06:11:20.323Z,19.77
2018-11-10T06:13:48.888Z,22.37
2018-11-10T06:16:17.478Z,21.33
2018-11-10T06:18:46.017Z,23.63
2018-11-10T06:21:14.653Z,28.10
2018-11-10T06:23:43.156Z,22.43
2018-11-10T06:26:11.795Z,23.00
2018-11-10T06:28:40.273Z,23.93
2018-11-10T06:31:08.823Z,28.77
2018-11-10T06:33:37.468Z,24.67
2018-11-10T06:36:07.120Z,25.63
2018-11-10T06:38:35.674Z,25.57
2018-11-10T06:41:04.300Z,24.07
2018-11-10T06:43:32.809Z,23.03
2018-11-10T06:46:01.385Z,25.53
2018-11-10T06:48:29.913Z,22.77
2018-11-10T06:50:58.500Z,22.33
2018-11-10T06:53:27.019Z,27.87
2018-11-10T06:55:55.549Z,29.13
2018-11-10T06:58:24.104Z,28.20
2018-11-10T07:00:52.636Z,31.80
2018-11-10T07:03:21.279Z,23.97
2018-11-10T07:05:49.748Z,31.77
2018-11-10T07:08:18.281Z,26.87
2018-11-10T07:10:46.828Z,26.63
2018-11-10T07:13:15.365Z,31.50
2018-11-10T07:15:43.893Z,23.30
2018-11-10T07:18:12.583Z,29.73
2018-11-10T07:20:41.021Z,32.20
2018-11-10T07:23:09.576Z,29.17
2018-11-10T07:25:38.093Z,35.07
2018-11-10T07:28:06.861Z,33.23
2018-11-10T07:30:35.433Z,28.10
2018-11-10T07:33:04.031Z,26.57
2018-11-10T07:35:32.536Z,32.07
2018-11-10T07:38:01.079Z,34.17
2018-11-10T07:40:29.718Z,34.93
2018-11-10T07:42:58.287Z,32.37
2018-11-10T07:45:26.803Z,35.07
2018-11-10T07:47:55.350Z,29.03
2018-11-10T07:50:23.941Z,34.37
2018-11-10T07:52:52.500Z,29.63
2018-11-10T07:55:21.040Z,36.57
2018-11-10T07:57:49.619Z,35.73
2018-11-10T08:00:18.724Z,32.97
2018-11-10T08:02:47.285Z,31.37
2018-11-10T08:05:16.301Z,32.03
2018-11-10T08:07:45.304Z,35.50
2018-11-10T08:10:14.633Z,33.47
2018-11-10T08:12:43.944Z,31.60
2018-11-10T08:15:13.829Z,33.73
2018-11-10T08:17:42.522Z,36.63
2018-11-10T08:20:11.586Z,36.60
2018-11-10T08:22:40.294Z,30.67
2018-11-10T08:25:10.775Z,36.53
2018-11-10T08:27:39.593Z,35.07
2018-11-10T08:30:10.124Z,35.23
2018-11-10T08:32:38.720Z,44.13
2018-11-10T08:35:08.240Z,41.13
2018-11-10T08:37:36.956Z,40.37
2018-11-10T08:40:06.797Z,72.07
2018-11-10T08:42:35.339Z,44.77
2018-11-10T08:45:04.093Z,46.70
2018-11-10T08:47:32.679Z,42.63
2018-11-10T08:50:01.193Z,33.93
2018-11-10T08:52:29.729Z,45.40
2018-11-10T08:54:58.324Z,34.70
2018-11-10T08:57:26.912Z,35.03
2018-11-10T08:59:55.541Z,38.03
2018-11-10T09:02:24.052Z,36.07
2018-11-10T09:04:52.609Z,36.07
2018-11-10T09:07:21.175Z,30.67
2018-11-10T09:09:49.753Z,43.97
2018-11-10T09:12:18.261Z,47.70
2018-11-10T09:14:46.771Z,38.83
2018-11-10T09:17:15.301Z,41.27
2018-11-10T09:19:43.826Z,37.80
2018-11-10T09:22:12.337Z,39.60
2018-11-10T09:24:40.881Z,40.27
2018-11-10T09:27:09.409Z,36.53
2018-11-10T09:29:37.952Z,44.80
2018-11-10T09:32:06.843Z,41.43
2018-11-10T09:34:35.419Z,38.83
2018-11-10T09:37:03.943Z,41.07
2018-11-10T09:39:32.487Z,37.53
2018-11-10T09:42:01.047Z,34.97
2018-11-10T09:44:29.572Z,31.67
2018-11-10T09:46:58.131Z,54.10
2018-11-10T09:49:26.709Z,44.47
2018-11-10T09:51:55.222Z,40.67
2018-11-10T09:54:23.768Z,41.03
2018-11-10T09:56:52.303Z,40.87
2018-11-10T09:59:20.849Z,43.70
2018-11-10T10:01:49.702Z,45.73
2018-11-10T10:04:17.936Z,51.53
2018-11-10T10:06:46.483Z,42.50
2018-11-10T10:09:15.110Z,42.53
2018-11-10T10:11:43.616Z,45.43
2018-11-10T10:14:12.181Z,44.27
2018-11-10T10:16:40.763Z,39.30
2018-11-10T10:19:10.027Z,47.27
2018-11-10T10:21:38.631Z,54.00
2018-11-10T10:24:08.324Z,52.90
2018-11-10T10:26:36.849Z,49.30
2018-11-10T10:29:06.270Z,53.73
2018-11-10T10:31:34.830Z,43.37
2018-11-10T10:34:03.553Z,41.07
2018-11-10T10:36:32.002Z,35.80
2018-11-10T10:39:00.561Z,48.93
2018-11-10T10:41:29.101Z,32.27
2018-11-10T10:43:57.632Z,36.30
2018-11-10T10:46:26.197Z,47.70
2018-11-10T10:48:55.343Z,34.93
2018-11-10T10:51:23.878Z,31.23
2018-11-10T10:53:52.429Z,36.53
2018-11-10T10:56:21.828Z,37.30
2018-11-10T10:58:50.487Z,32.90
2018-11-10T11:01:24.406Z,33.00
2018-11-10T11:05:00.390Z,29.43
2018-11-10T11:07:28.944Z,38.07
2018-11-10T11:09:57.449Z,34.63
2018-11-10T11:12:26.434Z,35.00
2018-11-10T11:14:55.032Z,30.37
2018-11-10T11:17:23.568Z,31.80
2018-11-10T11:19:52.100Z,33.90
2018-11-10T11:22:20.717Z,30.83
2018-11-10T11:24:49.308Z,31.50
2018-11-10T11:27:17.836Z,31.67
2018-11-10T11:29:47.101Z,46.63
2018-11-10T11:32:16.261Z,31.07
2018-11-10T11:34:44.797Z,32.27
2018-11-10T11:37:13.443Z,33.77
2018-11-10T11:39:41.976Z,36.00
2018-11-10T11:42:10.506Z,31.87
2018-11-10T11:44:39.752Z,33.20
2018-11-10T11:47:08.255Z,35.07
2018-11-10T11:49:36.858Z,37.10
2018-11-10T11:52:05.816Z,38.57
2018-11-10T11:54:34.396Z,40.67
2018-11-10T11:57:02.932Z,33.63
2018-11-10T11:59:31.583Z,32.27
2018-11-10T12:02:00.754Z,33.87
2018-11-10T12:04:29.449Z,35.13
2018-11-10T12:06:58.029Z,32.47
2018-11-10T12:09:26.585Z,28.53
2018-11-10T12:11:55.176Z,33.77
2018-11-10T12:14:23.716Z,27.77
2018-11-10T12:16:52.326Z,35.53
2018-11-10T12:19:20.927Z,39.20
2018-11-10T12:21:49.471Z,38.60
2018-11-10T12:24:18.100Z,36.95
2018-11-10T12:26:46.678Z,31.70
2018-11-10T12:29:15.221Z,36.10
2018-11-10T12:31:43.821Z,32.00
2018-11-10T12:34:12.399Z,30.63
2018-11-10T12:36:40.945Z,33.90
2018-11-10T12:39:10.040Z,32.53
2018-11-10T12:41:38.589Z,35.33
2018-11-10T12:44:07.512Z,34.63
2018-11-10T12:46:36.028Z,35.53
2018-11-10T12:49:04.670Z,32.17
2018-11-10T12:51:33.175Z,34.87
2018-11-10T12:54:01.749Z,36.63
2018-11-10T12:56:30.312Z,34.77
2018-11-10T12:58:58.916Z,30.30
2018-11-10T13:01:27.380Z,34.73
2018-11-10T13:03:55.965Z,34.37
2018-11-10T13:06:24.474Z,30.40
2018-11-10T13:08:53.044Z,35.60
2018-11-10T13:11:21.662Z,29.13
2018-11-10T13:13:50.227Z,31.87
2018-11-10T13:16:18.783Z,25.30
2018-11-10T13:18:47.380Z,25.13
2018-11-10T13:21:15.980Z,36.30
2018-11-10T13:23:44.532Z,33.50
2018-11-10T13:26:13.152Z,37.13
2018-11-10T13:28:41.741Z,35.50
2018-11-10T13:31:10.406Z,34.27
2018-11-10T13:33:40.436Z,37.43
2018-11-10T13:36:08.975Z,31.17
2018-11-10T13:38:37.522Z,35.77
2018-11-10T13:41:06.099Z,36.60
2018-11-10T13:43:34.651Z,38.43
2018-11-10T13:46:03.217Z,41.50
2018-11-10T13:48:31.791Z,43.13
2018-11-10T13:51:00.498Z,33.10
2018-11-10T13:53:28.934Z,37.60
2018-11-10T13:55:58.092Z,35.90
2018-11-10T13:58:26.604Z,45.37
2018-11-10T14:00:55.179Z,34.47
2018-11-10T14:03:23.709Z,42.10
2018-11-10T14:05:52.240Z,27.00
2018-11-10T14:08:20.790Z,33.83
2018-11-10T14:10:49.332Z,40.23
2018-11-10T14:13:17.969Z,34.60
2018-11-10T14:15:46.477Z,42.43
2018-11-10T14:18:15.072Z,24.03
2018-11-10T14:20:43.661Z,36.23
2018-11-10T14:23:12.212Z,31.50
2018-11-10T14:25:40.740Z,35.87
2018-11-10T14:28:09.288Z,37.10
2018-11-10T14:30:37.807Z,34.20
2018-11-10T14:33:06.782Z,33.77
2018-11-10T14:35:35.320Z,39.13
2018-11-10T14:38:04.405Z,38.77
2018-11-10T14:40:33.011Z,34.60
2018-11-10T14:43:01.534Z,39.20
2018-11-10T14:45:30.088Z,36.30
2018-11-10T14:47:58.649Z,36.03
2018-11-10T14:50:27.192Z,39.67
2018-11-10T14:52:55.807Z,32.83
2018-11-10T14:55:24.279Z,32.20
2018-11-10T14:57:52.807Z,32.57
2018-11-10T15:00:25.493Z,30.93
2018-11-10T15:02:54.389Z,26.10
2018-11-10T15:05:22.983Z,30.63
2018-11-10T15:07:51.533Z,33.93
2018-11-10T15:10:20.083Z,34.93
2018-11-10T15:12:48.827Z,28.17
2018-11-10T15:15:18.360Z,26.47
2018-11-10T15:17:47.179Z,30.30
2018-11-10T15:20:17.048Z,33.80
2018-11-10T15:22:45.566Z,31.37
2018-11-10T15:25:15.671Z,34.93
2018-11-10T15:27:44.244Z,34.85
2018-11-10T15:30:15.278Z,38.50
2018-11-10T15:32:44.684Z,35.87
2018-11-10T15:35:14.426Z,34.93
2018-11-10T15:37:44.174Z,31.80
2018-11-10T15:40:13.631Z,30.40
2018-11-10T15:42:42.229Z,43.77
2018-11-10T15:45:12.014Z,40.30
2018-11-10T15:47:41.083Z,44.03
2018-11-10T15:50:11.370Z,39.83
2018-11-10T15:52:39.935Z,42.47
2018-11-10T15:55:09.553Z,41.40
2018-11-10T15:57:38.907Z,45.40
2018-11-10T16:00:09.566Z,42.73
2018-11-10T16:02:38.064Z,39.73
2018-11-10T16:05:07.713Z,30.77
2018-11-10T16:07:36.305Z,37.40
2018-11-10T16:10:05.050Z,45.27
2018-11-10T16:12:33.632Z,34.03
2018-11-10T16:15:02.392Z,43.67
2018-11-10T16:17:31.041Z,36.10
2018-11-10T16:19:59.581Z,45.30
2018-11-10T16:22:28.159Z,48.43
2018-11-10T16:24:56.688Z,32.03
2018-11-10T16:27:25.253Z,43.23
2018-11-10T16:29:53.777Z,37.10
2018-11-10T16:32:22.321Z,45.43
2018-11-10T16:34:50.851Z,49.33
2018-11-10T16:37:19.399Z,38.67
2018-11-10T16:39:47.909Z,45.80
2018-11-10T16:42:16.473Z,40.27
2018-11-10T16:44:45.025Z,37.37
2018-11-10T16:47:13.611Z,37.60
2018-11-10T16:49:42.144Z,36.70
2018-11-10T16:52:10.693Z,35.97
2018-11-10T16:54:39.193Z,48.47
2018-11-10T16:57:07.730Z,33.83
2018-11-10T16:59:36.254Z,45.57
2018-11-10T17:02:05.045Z,46.47
2018-11-10T17:04:33.564Z,46.00
2018-11-10T17:07:02.123Z,43.70
2018-11-10T17:09:30.656Z,50.00
2018-11-10T17:11:59.996Z,52.37
2018-11-10T17:14:28.606Z,53.27
2018-11-10T17:16:57.101Z,52.50
2018-11-10T17:19:25.665Z,47.33
2018-11-10T17:21:54.390Z,50.27
2018-11-10T17:24:22.773Z,63.20
2018-11-10T17:26:51.348Z,52.00
2018-11-10T17:29:19.899Z,56.87
2018-11-10T17:31:48.468Z,52.83
2018-11-10T17:34:17.009Z,54.67
2018-11-10T17:36:45.596Z,62.67
2018-11-10T17:39:14.254Z,52.63
2018-11-10T17:41:42.729Z,49.47
2018-11-10T17:44:11.297Z,48.47
2018-11-10T17:46:39.828Z,45.70
2018-11-10T17:49:08.473Z,47.73
2018-11-10T17:51:37.036Z,46.73
2018-11-10T17:54:05.650Z,51.87
2018-11-10T17:56:34.283Z,53.77
2018-11-10T17:59:02.813Z,50.40
2018-11-10T18:01:31.571Z,50.27
2018-11-10T18:04:00.149Z,50.90
2018-11-10T18:06:28.728Z,50.53
2018-11-10T18:08:57.262Z,47.03
2018-11-10T18:11:25.900Z,50.87
2018-11-10T18:13:54.636Z,55.13
2018-11-10T18:16:23.243Z,47.70
2018-11-10T18:18:51.819Z,42.53
2018-11-10T18:21:20.361Z,45.57
2018-11-10T18:23:48.919Z,52.97
2018-11-10T18:26:18.220Z,50.47
2018-11-10T18:28:46.817Z,51.53
2018-11-10T18:31:15.376Z,48.07
2018-11-10T18:33:43.972Z,60.57
2018-11-10T18:36:12.577Z,45.70
2018-11-10T18:38:41.108Z,59.70
2018-11-10T18:41:09.637Z,61.07
2018-11-10T18:43:38.177Z,56.13
2018-11-10T18:46:07.265Z,52.77
2018-11-10T18:48:36.017Z,41.47
2018-11-10T18:51:05.734Z,34.50
2018-11-10T18:53:34.308Z,53.33
2018-11-10T18:56:02.817Z,46.43
2018-11-10T18:58:31.353Z,53.17
2018-11-10T19:00:59.891Z,46.57
2018-11-10T19:03:28.426Z,42.47
2018-11-10T19:05:56.962Z,36.67
2018-11-10T19:08:30.209Z,38.60
2018-11-10T19:10:58.902Z,41.53
2018-11-10T19:13:27.449Z,37.67
2018-11-10T19:15:55.970Z,39.07
2018-11-10T19:18:25.477Z,43.37
2018-11-10T19:20:54.026Z,43.27
2018-11-10T19:23:22.529Z,44.60
2018-11-10T19:25:51.036Z,43.03
2018-11-10T19:28:19.621Z,41.07
2018-11-10T19:30:48.145Z,41.03
2018-11-10T19:33:16.701Z,41.43
2018-11-10T19:35:45.307Z,44.63
2018-11-10T19:38:13.840Z,42.40
2018-11-10T19:40:42.374Z,40.67
2018-11-10T19:43:10.956Z,41.20
2018-11-10T19:45:39.485Z,37.13
2018-11-10T19:48:08.048Z,30.83
2018-11-10T19:50:36.651Z,34.25
2018-11-10T19:53:05.368Z,37.37
2018-11-10T19:55:33.912Z,40.03
2018-11-10T19:58:02.466Z,33.30
2018-11-10T20:00:31.031Z,36.73
2018-11-10T20:02:59.611Z,40.20
2018-11-10T20:05:28.159Z,38.37
2018-11-10T20:07:56.737Z,42.60
2018-11-10T20:10:25.269Z,50.40
2018-11-10T20:12:53.877Z,56.27
2018-11-10T20:15:22.393Z,63.63
2018-11-10T20:17:51.004Z,68.53
2018-11-10T20:20:20.267Z,78.67
2018-11-10T20:22:48.790Z,95.03
2018-11-10T20:25:18.433Z,92.60
2018-11-10T20:27:46.994Z,85.73
2018-11-10T20:30:18.074Z,71.03
2018-11-10T20:32:46.909Z,56.90
2018-11-10T20:35:15.488Z,64.57
2018-11-10T20:37:44.634Z,70.00
2018-11-10T20:40:14.065Z,63.77
2018-11-10T20:42:42.935Z,58.97
2018-11-10T20:45:13.884Z,50.13
2018-11-10T20:47:42.652Z,56.73
2018-11-10T20:50:11.925Z,47.57
2018-11-10T20:52:40.483Z,46.70
2018-11-10T20:55:10.050Z,38.73
2018-11-10T20:57:38.869Z,44.33
2018-11-10T21:00:11.453Z,40.03
2018-11-10T21:02:40.900Z,39.40
2018-11-10T21:05:10.817Z,37.70
2018-11-10T21:07:40.369Z,44.83
2018-11-10T21:10:11.606Z,39.73
2018-11-10T21:12:41.416Z,32.60
2018-11-10T21:15:10.306Z,44.40
2018-11-10T21:17:39.733Z,41.70
2018-11-10T21:20:09.511Z,37.90
2018-11-10T21:22:38.090Z,39.47
2018-11-10T21:25:08.068Z,35.67
2018-11-10T21:27:36.641Z,45.43
2018-11-10T21:30:06.573Z,41.07
2018-11-10T21:32:35.048Z,32.90
2018-11-10T21:35:03.727Z,38.30
2018-11-10T21:37:32.286Z,44.00
2018-11-10T21:40:00.861Z,40.97
2018-11-10T21:42:29.393Z,35.43
2018-11-10T21:44:58.717Z,38.77
2018-11-10T21:47:27.273Z,32.00
2018-11-10T21:49:55.978Z,39.00
2018-11-10T21:52:24.524Z,41.83
2018-11-10T21:54:53.129Z,30.37
2018-11-10T21:57:21.671Z,33.97
2018-11-10T21:59:50.208Z,37.03
2018-11-10T22:02:18.805Z,38.73
2018-11-10T22:04:47.356Z,33.53
2018-11-10T22:07:16.044Z,37.47
2018-11-10T22:09:44.596Z,31.70
2018-11-10T22:12:13.132Z,35.93
2018-11-10T22:14:42.592Z,29.97
2018-11-10T22:17:11.730Z,31.17
2018-11-10T22:19:40.337Z,32.37
2018-11-10T22:22:08.918Z,33.20
2018-11-10T22:24:37.484Z,32.43
2018-11-10T22:27:06.558Z,35.17
2018-11-10T22:29:35.459Z,35.53
2018-11-10T22:32:04.027Z,33.77
2018-11-10T22:34:32.645Z,34.73
2018-11-10T22:37:01.140Z,35.80
2018-11-10T22:39:29.700Z,33.30
2018-11-10T22:41:58.219Z,35.87
2018-11-10T22:44:26.771Z,33.13
2018-11-10T22:46:55.309Z,39.87
2018-11-10T22:49:23.856Z,38.53
2018-11-10T22:51:52.421Z,32.23
2018-11-10T22:54:21.020Z,35.67
2018-11-10T22:56:50.181Z,31.20
2018-11-10T22:59:18.708Z,30.90
2018-11-10T23:01:47.233Z,30.77
2018-11-10T23:04:15.791Z,28.83
2018-11-10T23:06:44.384Z,31.33
2018-11-10T23:09:12.896Z,32.30
2018-11-10T23:11:41.459Z,24.50
2018-11-10T23:14:10.014Z,27.03
2018-11-10T23:16:38.561Z,29.43
2018-11-10T23:19:07.161Z,25.07
2018-11-10T23:21:35.697Z,26.67
2018-11-10T23:24:04.365Z,23.43
2018-11-10T23:26:32.913Z,26.50
2018-11-10T23:29:01.489Z,30.70
2018-11-10T23:31:30.308Z,34.60
2018-11-10T23:33:58.868Z,28.63
2018-11-10T23:36:27.428Z,27.60
2018-11-10T23:38:55.973Z,32.93
2018-11-10T23:41:24.548Z,33.73
2018-11-10T23:43:53.129Z,30.53
2018-11-10T23:46:21.815Z,29.33
2018-11-10T23:48:50.373Z,34.80
2018-11-10T23:51:18.899Z,35.77
2018-11-10T23:53:47.425Z,25.83
2018-11-10T23:56:16.094Z,25.83
2018-11-10T23:58:44.618Z,33.67
